createdAt,value
2022-11-25T00:01:23.002Z,98040.84
2022-11-25T00:03:58.433Z,98023.72
2022-11-25T00:06:29.180Z,98022.88
2022-11-25T00:09:01.225Z,98039.00
2022-11-25T00:11:28.093Z,98029.84
2022-11-25T00:13:56.088Z,98028.97
2022-11-25T00:16:24.696Z,98033.00
2022-11-25T00:18:54.092Z,98033.25
2022-11-25T00:21:23.577Z,98024.50
2022-11-25T00:24:14.209Z,98025.78
2022-11-25T00:26:40.853Z,98028.88
2022-11-25T00:29:08.393Z,98024.06
2022-11-25T00:31:37.335Z,98029.22
2022-11-25T00:34:04.978Z,98027.94
2022-11-25T00:36:34.675Z,98031.81
2022-11-25T00:39:05.267Z,98026.88
2022-11-25T00:41:50.852Z,98027.38
2022-11-25T00:44:38.763Z,98024.94
2022-11-25T00:47:06.086Z,98033.03
2022-11-25T00:49:33.051Z,98032.78
2022-11-25T00:52:03.747Z,98034.25
2022-11-25T00:54:30.624Z,98035.94
2022-11-25T00:56:58.243Z,98036.28
2022-11-25T00:59:25.158Z,98042.41
2022-11-25T01:01:52.230Z,98046.38
2022-11-25T01:04:18.910Z,98043.25
2022-11-25T01:06:45.430Z,98049.28
2022-11-25T01:09:15.094Z,98042.19
2022-11-25T01:11:41.998Z,98045.34
2022-11-25T01:14:09.202Z,98024.59
2022-11-25T01:16:37.791Z,98040.66
2022-11-25T01:19:08.608Z,98040.34
2022-11-25T01:21:35.620Z,98045.50
2022-11-25T01:24:06.663Z,98036.94
2022-11-25T01:26:35.687Z,98051.38
2022-11-25T01:29:05.752Z,98051.16
2022-11-25T01:31:36.308Z,98046.63
2022-11-25T01:34:06.997Z,98048.06
2022-11-25T01:36:35.314Z,98043.38
2022-11-25T01:39:03.338Z,98035.06
2022-11-25T01:41:32.754Z,98043.38
2022-11-25T01:44:08.286Z,98040.97
2022-11-25T01:46:58.406Z,98039.28
2022-11-25T01:49:37.321Z,98038.31
2022-11-25T01:52:24.906Z,98036.53
2022-11-25T01:54:57.465Z,98044.84
2022-11-25T01:57:48.582Z,98041.34
2022-11-25T02:00:16.087Z,98043.78
2022-11-25T02:02:49.608Z,98038.69
2022-11-25T02:05:21.001Z,98038.22
2022-11-25T02:07:53.465Z,98040.94
2022-11-25T02:10:25.823Z,98034.59
2022-11-25T02:12:53.347Z,98040.72
2022-11-25T02:15:21.505Z,98040.09
2022-11-25T02:17:49.171Z,98038.03
2022-11-25T02:20:19.535Z,98031.72
2022-11-25T02:23:15.102Z,98018.75
2022-11-25T02:25:45.507Z,98029.16
2022-11-25T02:28:18.061Z,98025.25
2022-11-25T02:30:45.800Z,98027.06
2022-11-25T02:33:14.028Z,98025.84
2022-11-25T02:35:49.273Z,98030.69
2022-11-25T02:38:40.185Z,98037.19
2022-11-25T02:41:15.797Z,98030.94
2022-11-25T02:43:45.729Z,98032.28
2022-11-25T02:46:22.136Z,98031.47
2022-11-25T02:51:41.881Z,98033.56
2022-11-25T02:54:10.038Z,98022.81
2022-11-25T02:56:37.383Z,98024.00
2022-11-25T02:59:04.848Z,98040.63
2022-11-25T03:01:32.109Z,98034.94
2022-11-25T03:04:00.008Z,98030.03
2022-11-25T03:06:28.153Z,98035.56
2022-11-25T03:08:55.183Z,98047.09
2022-11-25T03:11:42.137Z,98035.16
2022-11-25T03:14:09.417Z,98036.75
2022-11-25T03:16:36.021Z,98044.22
2022-11-25T03:19:04.204Z,98040.81
2022-11-25T03:21:31.183Z,98030.22
2022-11-25T03:23:58.136Z,98041.69
2022-11-25T03:26:26.144Z,98044.34
2022-11-25T03:28:53.143Z,98038.09
2022-11-25T03:31:19.934Z,98041.31
2022-11-25T03:33:47.064Z,98053.09
2022-11-25T03:36:14.062Z,98050.03
2022-11-25T03:38:40.833Z,98043.56
2022-11-25T03:41:07.553Z,98050.47
2022-11-25T03:43:35.558Z,98053.44
2022-11-25T03:46:02.844Z,98059.03
2022-11-25T03:48:30.879Z,98053.94
2022-11-25T03:50:57.737Z,98056.81
2022-11-25T03:53:25.981Z,98062.06
2022-11-25T03:55:52.891Z,98056.41
2022-11-25T03:58:22.433Z,98056.66
2022-11-25T04:00:50.794Z,98054.50
2022-11-25T04:03:17.513Z,98063.69
2022-11-25T04:05:44.486Z,98067.41
2022-11-25T04:08:12.220Z,98068.25
2022-11-25T04:10:39.511Z,98066.44
2022-11-25T04:13:06.888Z,98061.50
2022-11-25T04:15:37.823Z,98065.28
2022-11-25T04:18:05.674Z,98068.56
2022-11-25T04:20:33.450Z,98058.75
2022-11-25T04:23:06.308Z,98064.03
2022-11-25T04:25:36.417Z,98053.47
2022-11-25T04:28:13.042Z,98066.84
2022-11-25T04:30:41.202Z,98068.38
2022-11-25T04:33:08.123Z,98063.94
2022-11-25T04:35:35.527Z,98071.25
2022-11-25T04:38:02.874Z,98077.91
2022-11-25T04:40:30.762Z,98064.88
2022-11-25T04:43:11.191Z,98069.31
2022-11-25T04:46:06.787Z,98060.03
2022-11-25T04:48:29.758Z,98078.59
2022-11-25T04:50:56.703Z,98068.06
2022-11-25T04:53:24.224Z,98070.72
2022-11-25T04:55:50.920Z,98079.47
2022-11-25T04:58:39.170Z,98075.44
2022-11-25T05:01:06.413Z,98077.84
2022-11-25T05:03:33.734Z,98072.38
2022-11-25T05:06:06.263Z,98084.31
2022-11-25T05:08:33.343Z,98074.91
2022-11-25T05:11:00.739Z,98086.28
2022-11-25T05:13:27.318Z,98083.78
2022-11-25T05:15:54.315Z,98088.53
2022-11-25T05:18:23.026Z,98087.56
2022-11-25T05:20:49.819Z,98079.13
2022-11-25T05:23:20.471Z,98082.22
2022-11-25T05:25:48.730Z,98085.47
2022-11-25T05:28:27.889Z,98075.66
2022-11-25T05:30:55.058Z,98084.22
2022-11-25T05:33:21.982Z,98086.72
2022-11-25T05:36:00.245Z,98082.31
2022-11-25T05:38:32.335Z,98082.72
2022-11-25T05:41:16.175Z,98084.41
2022-11-25T05:43:48.195Z,98085.88
2022-11-25T05:46:15.507Z,98085.75
2022-11-25T05:48:54.372Z,98081.31
2022-11-25T05:51:22.333Z,98079.03
2022-11-25T05:53:50.296Z,98078.91
2022-11-25T05:56:18.520Z,98081.78
2022-11-25T05:59:20.657Z,98079.97
2022-11-25T06:02:07.183Z,98086.75
2022-11-25T06:04:37.213Z,98086.25
2022-11-25T06:07:04.237Z,98083.41
2022-11-25T06:09:31.073Z,98098.47
2022-11-25T06:11:59.437Z,98098.16
2022-11-25T06:14:26.431Z,98106.22
2022-11-25T06:16:53.498Z,98103.81
2022-11-25T06:19:30.274Z,98102.44
2022-11-25T06:21:57.788Z,98106.69
2022-11-25T06:24:27.367Z,98108.44
2022-11-25T06:27:00.686Z,98106.47
2022-11-25T06:29:27.609Z,98111.91
2022-11-25T06:31:55.083Z,98102.59
2022-11-25T06:34:48.853Z,98103.44
2022-11-25T06:37:28.187Z,98110.38
2022-11-25T06:39:54.979Z,98116.00
2022-11-25T06:42:21.592Z,98119.53
2022-11-25T06:44:48.196Z,98124.47
2022-11-25T06:47:14.831Z,98123.09
2022-11-25T06:49:46.101Z,98135.00
2022-11-25T06:52:12.842Z,98131.91
2022-11-25T06:54:41.323Z,98145.63
2022-11-25T06:57:09.297Z,98143.00
2022-11-25T06:59:36.524Z,98149.78
2022-11-25T07:02:03.876Z,98142.59
2022-11-25T07:04:31.045Z,98145.28
2022-11-25T07:06:57.726Z,98145.78
2022-11-25T07:09:24.994Z,98157.03
2022-11-25T07:11:51.765Z,98154.63
2022-11-25T07:14:18.943Z,98156.47
2022-11-25T07:16:46.617Z,98160.59
2022-11-25T07:19:16.207Z,98162.06
2022-11-25T07:21:45.570Z,98164.91
2022-11-25T07:24:15.122Z,98163.13
2022-11-25T07:26:43.690Z,98166.00
2022-11-25T07:29:49.924Z,98171.78
2022-11-25T07:32:07.131Z,98171.31
2022-11-25T07:34:36.960Z,98174.78
2022-11-25T07:37:06.193Z,98183.13
2022-11-25T07:39:32.925Z,98187.09
2022-11-25T07:41:59.733Z,98185.88
2022-11-25T07:44:26.411Z,98193.22
2022-11-25T07:47:01.147Z,98201.19
2022-11-25T07:49:27.795Z,98198.19
2022-11-25T07:51:59.849Z,98195.00
2022-11-25T07:54:27.004Z,98199.28
2022-11-25T07:56:53.859Z,98195.06
2022-11-25T07:59:22.756Z,98189.72
2022-11-25T08:01:51.587Z,98194.28
2022-11-25T08:04:20.724Z,98186.59
2022-11-25T08:06:49.877Z,98186.72
2022-11-25T08:09:20.347Z,98179.09
2022-11-25T08:11:48.062Z,98187.81
2022-11-25T08:14:15.649Z,98185.88
2022-11-25T08:16:42.919Z,98189.13
2022-11-25T08:19:13.945Z,98195.06
2022-11-25T08:21:41.070Z,98193.53
2022-11-25T08:24:07.822Z,98187.34
2022-11-25T08:26:36.589Z,98185.81
2022-11-25T08:29:06.199Z,98193.00
2022-11-25T08:31:39.329Z,98176.47
2022-11-25T08:34:07.299Z,98188.41
2022-11-25T08:36:36.492Z,98181.03
2022-11-25T08:39:29.082Z,98194.78
2022-11-25T08:41:54.139Z,98193.53
2022-11-25T08:44:20.899Z,98186.25
2022-11-25T08:46:47.549Z,98190.75
2022-11-25T08:49:17.174Z,98185.91
2022-11-25T08:51:44.099Z,98185.94
2022-11-25T08:54:10.767Z,98181.56
2022-11-25T08:56:37.382Z,98201.66
2022-11-25T08:59:04.442Z,98186.66
2022-11-25T09:01:31.333Z,98193.94
2022-11-25T09:03:58.429Z,98193.56
2022-11-25T09:06:26.778Z,98188.44
2022-11-25T09:08:58.915Z,98198.03
2022-11-25T09:11:26.055Z,98202.88
2022-11-25T09:13:53.203Z,98212.44
2022-11-25T09:16:21.081Z,98213.38
2022-11-25T09:18:52.539Z,98210.75
2022-11-25T09:21:24.900Z,98215.78
2022-11-25T09:23:54.026Z,98215.38
2022-11-25T09:26:26.199Z,98228.53
2022-11-25T09:28:53.910Z,98223.28
2022-11-25T09:31:21.715Z,98224.56
2022-11-25T09:33:48.608Z,98222.72
2022-11-25T09:36:18.266Z,98225.69
2022-11-25T09:38:45.472Z,98220.97
2022-11-25T09:42:16.654Z,98214.31
2022-11-25T09:45:18.047Z,98223.59
2022-11-25T09:48:26.588Z,98226.19
2022-11-25T09:51:18.085Z,98224.63
2022-11-25T09:53:50.355Z,98224.25
2022-11-25T09:56:27.224Z,98215.88
2022-11-25T09:59:00.428Z,98208.38
2022-11-25T10:01:30.663Z,98206.78
2022-11-25T10:04:14.308Z,98213.28
2022-11-25T10:06:54.910Z,98206.59
2022-11-25T10:09:26.072Z,98215.41
2022-11-25T10:11:57.042Z,98214.22
2022-11-25T10:14:26.533Z,98220.19
2022-11-25T10:17:17.505Z,98222.81
2022-11-25T10:19:50.019Z,98222.97
2022-11-25T10:22:32.556Z,98220.72
2022-11-25T10:25:02.885Z,98230.34
2022-11-25T10:27:44.026Z,98237.44
2022-11-25T10:30:26.407Z,98231.41
2022-11-25T10:33:12.895Z,98231.47
2022-11-25T10:35:45.573Z,98239.88
2022-11-25T10:38:19.250Z,98235.72
2022-11-25T10:40:50.123Z,98231.19
2022-11-25T10:43:16.955Z,98226.75
2022-11-25T10:46:06.729Z,98233.94
2022-11-25T10:49:19.830Z,98233.38
2022-11-25T10:51:49.515Z,98231.38
2022-11-25T10:54:26.777Z,98229.06
2022-11-25T10:57:15.976Z,98232.84
2022-11-25T10:59:56.791Z,98239.31
2022-11-25T11:02:30.932Z,98231.03
2022-11-25T11:05:16.679Z,98239.63
2022-11-25T11:07:46.239Z,98242.63
2022-11-25T11:10:23.324Z,98252.13
2022-11-25T11:12:54.683Z,98242.41
2022-11-25T11:15:23.311Z,98246.38
2022-11-25T11:17:50.532Z,98244.06
2022-11-25T11:20:25.024Z,98238.28
2022-11-25T11:22:55.402Z,98234.34
2022-11-25T11:25:23.337Z,98230.41
2022-11-25T11:27:50.020Z,98222.34
2022-11-25T11:30:24.440Z,98223.09
2022-11-25T11:33:30.040Z,98227.22
2022-11-25T11:36:21.467Z,98228.09
2022-11-25T11:38:56.715Z,98223.78
2022-11-25T11:41:39.888Z,98223.00
2022-11-25T11:44:17.602Z,98220.53
2022-11-25T11:47:19.169Z,98214.75
2022-11-25T11:50:16.907Z,98219.97
2022-11-25T11:52:54.172Z,98215.94
2022-11-25T11:55:30.146Z,98219.03
2022-11-25T11:58:02.819Z,98215.28
2022-11-25T12:00:34.888Z,98219.84
2022-11-25T12:03:19.356Z,98218.28
2022-11-25T12:05:53.997Z,98219.22
2022-11-25T12:08:29.880Z,98220.16
2022-11-25T12:11:01.482Z,98219.97
2022-11-25T12:13:56.593Z,98217.78
2022-11-25T12:16:40.364Z,98209.28
2022-11-25T12:19:39.333Z,98212.66
2022-11-25T12:22:06.186Z,98210.03
2022-11-25T12:24:41.819Z,98215.09
2022-11-25T12:27:17.797Z,98207.31
2022-11-25T12:29:57.698Z,98205.50
2022-11-25T12:32:44.361Z,98208.47
2022-11-25T12:35:11.079Z,98200.75
2022-11-25T12:37:51.518Z,98200.09
2022-11-25T12:40:32.607Z,98192.97
2022-11-25T12:43:18.056Z,98190.44
2022-11-25T12:45:49.673Z,98205.38
2022-11-25T12:48:21.300Z,98200.59
2022-11-25T12:51:09.874Z,98207.19
2022-11-25T12:54:04.906Z,98207.28
2022-11-25T12:56:44.833Z,98204.13
2022-11-25T12:59:39.662Z,98199.72
2022-11-25T13:02:40.905Z,98203.25
2022-11-25T13:05:38.954Z,98202.34
2022-11-25T13:08:27.706Z,98205.75
2022-11-25T13:11:17.645Z,98207.69
2022-11-25T13:14:09.983Z,98200.44
2022-11-25T13:16:37.506Z,98187.81
2022-11-25T13:19:11.757Z,98196.41
2022-11-25T13:22:04.467Z,98198.25
2022-11-25T13:24:39.198Z,98197.53
2022-11-25T13:27:26.430Z,98198.13
2022-11-25T13:29:54.774Z,98196.31
2022-11-25T13:32:26.315Z,98201.13
2022-11-25T13:35:21.793Z,98195.50
2022-11-25T13:37:53.286Z,98198.44
2022-11-25T13:40:21.596Z,98197.22
2022-11-25T13:42:48.884Z,98209.69
2022-11-25T13:45:34.507Z,98206.38
2022-11-25T13:48:29.125Z,98207.50
2022-11-25T13:51:21.683Z,98212.06
2022-11-25T13:53:59.445Z,98211.56
2022-11-25T13:56:35.391Z,98198.84
2022-11-25T13:59:11.197Z,98209.81
2022-11-25T14:02:02.345Z,98208.34
2022-11-25T14:04:53.768Z,98210.13
2022-11-25T14:07:38.318Z,98210.97
2022-11-25T14:10:08.163Z,98215.16
2022-11-25T14:13:10.820Z,98214.03
2022-11-25T14:15:43.764Z,98207.50
2022-11-25T14:19:03.588Z,98217.03
2022-11-25T14:22:02.580Z,98210.97
2022-11-25T14:24:30.028Z,98205.31
2022-11-25T14:26:59.116Z,98196.88
2022-11-25T14:29:32.157Z,98210.50
2022-11-25T14:32:08.881Z,98218.97
2022-11-25T14:34:52.576Z,98220.31
2022-11-25T14:37:35.055Z,98225.41
2022-11-25T14:40:06.969Z,98223.41
2022-11-25T14:42:39.575Z,98233.28
2022-11-25T14:45:19.709Z,98233.69
2022-11-25T14:47:46.366Z,98232.63
2022-11-25T14:53:07.971Z,98241.06
2022-11-25T14:55:35.758Z,98238.28
2022-11-25T14:58:05.098Z,98244.16
2022-11-25T15:00:32.590Z,98239.72
2022-11-25T15:03:06.838Z,98243.09
2022-11-25T15:05:35.112Z,98240.47
2022-11-25T15:08:12.525Z,98240.91
2022-11-25T15:10:51.614Z,98245.13
2022-11-25T15:13:27.365Z,98254.78
2022-11-25T15:15:55.874Z,98250.91
2022-11-25T15:18:24.942Z,98258.88
2022-11-25T15:20:57.997Z,98269.53
2022-11-25T15:23:36.325Z,98275.66
2022-11-25T15:26:05.188Z,98274.41
2022-11-25T15:28:36.605Z,98285.91
2022-11-25T15:31:23.836Z,98272.50
2022-11-25T15:33:59.940Z,98271.38
2022-11-25T15:36:27.536Z,98275.00
2022-11-25T15:38:54.829Z,98272.81
2022-11-25T15:41:25.992Z,98273.09
2022-11-25T15:43:56.169Z,98279.00
2022-11-25T15:46:25.364Z,98281.03
2022-11-25T15:48:58.410Z,98282.44
2022-11-25T15:51:49.556Z,98292.50
2022-11-25T15:54:22.726Z,98278.56
2022-11-25T15:56:53.377Z,98282.28
2022-11-25T15:59:49.772Z,98285.09
2022-11-25T16:02:50.284Z,98278.78
2022-11-25T16:05:24.120Z,98295.69
2022-11-25T16:07:51.273Z,98295.19
2022-11-25T16:10:45.173Z,98286.09
2022-11-25T16:13:30.182Z,98280.16
2022-11-25T16:16:02.277Z,98290.53
2022-11-25T16:18:57.021Z,98280.72
2022-11-25T16:21:59.826Z,98279.41
2022-11-25T16:24:46.487Z,98290.63
2022-11-25T16:27:18.926Z,98295.09
2022-11-25T16:30:16.460Z,98290.94
2022-11-25T16:32:43.428Z,98289.03
2022-11-25T16:35:15.442Z,98297.06
2022-11-25T16:37:47.153Z,98292.00
2022-11-25T16:40:17.725Z,98299.66
2022-11-25T16:42:54.725Z,98291.53
2022-11-25T16:45:27.477Z,98294.56
2022-11-25T16:47:54.766Z,98280.28
2022-11-25T16:50:22.280Z,98290.72
2022-11-25T16:52:49.981Z,98288.41
2022-11-25T16:55:18.658Z,98294.75
2022-11-25T16:57:46.440Z,98288.03
2022-11-25T17:00:16.919Z,98280.97
2022-11-25T17:02:45.388Z,98289.94
2022-11-25T17:05:26.517Z,98293.94
2022-11-25T17:07:56.717Z,98293.09
2022-11-25T17:10:23.703Z,98304.94
2022-11-25T17:12:50.790Z,98302.19
2022-11-25T17:15:27.963Z,98303.16
2022-11-25T17:17:55.042Z,98299.03
2022-11-25T17:20:24.937Z,98313.38
2022-11-25T17:22:53.726Z,98312.25
2022-11-25T17:25:22.278Z,98308.97
2022-11-25T17:27:49.796Z,98311.94
2022-11-25T17:30:23.347Z,98322.19
2022-11-25T17:33:04.649Z,98323.53
2022-11-25T17:35:32.015Z,98322.63
2022-11-25T17:38:00.472Z,98331.59
2022-11-25T17:40:27.503Z,98343.31
2022-11-25T17:42:54.272Z,98342.03
2022-11-25T17:45:21.495Z,98342.56
2022-11-25T17:47:48.471Z,98339.50
2022-11-25T17:50:24.007Z,98351.84
2022-11-25T17:52:51.546Z,98351.81
2022-11-25T17:55:20.231Z,98354.06
2022-11-25T17:57:48.425Z,98349.19
2022-11-25T18:00:18.346Z,98355.50
2022-11-25T18:02:45.563Z,98355.81
2022-11-25T18:05:15.608Z,98364.00
2022-11-25T18:07:44.456Z,98358.44
2022-11-25T18:10:13.912Z,98366.69
2022-11-25T18:12:41.642Z,98366.13
2022-11-25T18:15:15.933Z,98364.97
2022-11-25T18:17:43.840Z,98352.25
2022-11-25T18:20:24.606Z,98361.88
2022-11-25T18:22:54.301Z,98369.31
2022-11-25T18:25:26.083Z,98366.84
2022-11-25T18:27:56.630Z,98375.44
2022-11-25T18:30:28.053Z,98369.59
2022-11-25T18:32:56.272Z,98371.19
2022-11-25T18:35:29.793Z,98382.97
2022-11-25T18:38:00.520Z,98369.22
2022-11-25T18:40:29.727Z,98374.31
2022-11-25T18:43:00.380Z,98376.34
2022-11-25T18:45:40.441Z,98372.22
2022-11-25T18:48:16.198Z,98384.28
2022-11-25T18:50:45.615Z,98373.91
2022-11-25T18:53:13.379Z,98388.31
2022-11-25T18:55:40.608Z,98388.31
2022-11-25T18:58:32.952Z,98401.59
2022-11-25T19:01:04.729Z,98398.06
2022-11-25T19:03:32.071Z,98402.31
2022-11-25T19:06:00.807Z,98401.44
2022-11-25T19:08:27.658Z,98412.44
2022-11-25T19:10:56.074Z,98413.16
2022-11-25T19:13:32.862Z,98419.19
2022-11-25T19:16:06.736Z,98419.41
2022-11-25T19:18:34.596Z,98428.44
2022-11-25T19:21:03.286Z,98424.09
2022-11-25T19:23:30.518Z,98444.56
2022-11-25T19:26:03.254Z,98444.56
2022-11-25T19:28:31.913Z,98444.25
2022-11-25T19:31:03.158Z,98448.09
2022-11-25T19:33:36.911Z,98451.19
2022-11-25T19:36:06.509Z,98443.81
2022-11-25T19:38:34.822Z,98451.50
2022-11-25T19:41:01.874Z,98449.94
2022-11-25T19:43:31.063Z,98456.28
2022-11-25T19:45:58.334Z,98464.09
2022-11-25T19:48:28.374Z,98461.75
2022-11-25T19:51:04.831Z,98469.59
2022-11-25T19:53:34.585Z,98471.56
2022-11-25T19:56:04.681Z,98468.47
2022-11-25T19:58:31.864Z,98469.50
2022-11-25T20:01:02.782Z,98469.78
2022-11-25T20:03:31.206Z,98471.50
2022-11-25T20:05:59.020Z,98466.69
2022-11-25T20:08:27.826Z,98478.44
2022-11-25T20:10:56.786Z,98471.50
2022-11-25T20:13:24.562Z,98482.31
2022-11-25T20:15:52.195Z,98479.34
2022-11-25T20:18:23.108Z,98480.88
2022-11-25T20:21:02.397Z,98485.41
2022-11-25T20:23:44.372Z,98488.13
2022-11-25T20:26:18.148Z,98487.97
2022-11-25T20:28:45.667Z,98489.03
2022-11-25T20:31:14.156Z,98497.03
2022-11-25T20:33:41.077Z,98500.78
2022-11-25T20:36:14.687Z,98497.75
2022-11-25T20:38:48.470Z,98501.34
2022-11-25T20:41:16.351Z,98501.63
2022-11-25T20:43:47.897Z,98503.53
2022-11-25T20:46:21.626Z,98511.50
2022-11-25T20:48:53.122Z,98498.66
2022-11-25T20:51:22.013Z,98513.50
2022-11-25T20:54:02.878Z,98511.88
2022-11-25T20:56:30.312Z,98512.28
2022-11-25T20:58:57.549Z,98523.94
2022-11-25T21:01:25.153Z,98523.50
2022-11-25T21:03:51.904Z,98523.78
2022-11-25T21:06:22.533Z,98531.22
2022-11-25T21:08:51.885Z,98533.84
2022-11-25T21:11:19.855Z,98532.34
2022-11-25T21:13:47.582Z,98534.50
2022-11-25T21:16:14.572Z,98543.28
2022-11-25T21:18:42.862Z,98540.47
2022-11-25T21:21:32.294Z,98541.91
2022-11-25T21:24:26.880Z,98538.78
2022-11-25T21:26:54.899Z,98543.97
2022-11-25T21:29:22.503Z,98545.47
2022-11-25T21:31:49.522Z,98544.72
2022-11-25T21:34:19.240Z,98545.47
2022-11-25T21:36:47.711Z,98542.59
2022-11-25T21:39:21.841Z,98549.16
2022-11-25T21:41:48.724Z,98552.91
2022-11-25T21:44:24.261Z,98557.28
2022-11-25T21:46:53.751Z,98565.81
2022-11-25T21:49:20.840Z,98564.06
2022-11-25T21:51:47.542Z,98563.97
2022-11-25T21:54:14.339Z,98574.41
2022-11-25T21:56:40.969Z,98569.44
2022-11-25T21:59:08.313Z,98567.91
2022-11-25T22:01:35.039Z,98576.03
2022-11-25T22:04:04.985Z,98583.69
2022-11-25T22:06:33.808Z,98575.97
2022-11-25T22:09:02.517Z,98588.84
2022-11-25T22:11:36.581Z,98579.75
2022-11-25T22:14:06.702Z,98583.69
2022-11-25T22:16:36.401Z,98585.03
2022-11-25T22:19:03.580Z,98591.91
2022-11-25T22:21:30.387Z,98588.88
2022-11-25T22:24:09.869Z,98600.06
2022-11-25T22:26:36.600Z,98600.31
2022-11-25T22:29:03.267Z,98601.41
2022-11-25T22:31:37.591Z,98591.91
2022-11-25T22:34:04.331Z,98597.59
2022-11-25T22:36:35.498Z,98607.72
2022-11-25T22:39:17.541Z,98613.88
2022-11-25T22:42:06.911Z,98612.75
2022-11-25T22:44:39.079Z,98613.38
2022-11-25T22:47:07.457Z,98614.03
2022-11-25T22:49:42.717Z,98605.94
2022-11-25T22:52:26.245Z,98614.25
2022-11-25T22:54:55.974Z,98614.41
2022-11-25T22:57:22.736Z,98619.38
2022-11-25T22:59:49.333Z,98622.09
2022-11-25T23:02:21.648Z,98617.72
2022-11-25T23:04:53.613Z,98632.81
2022-11-25T23:07:22.142Z,98638.34
2022-11-25T23:09:49.230Z,98644.28
2022-11-25T23:12:17.081Z,98635.72
2022-11-25T23:14:44.777Z,98628.75
2022-11-25T23:17:25.633Z,98644.66
2022-11-25T23:19:53.294Z,98649.06
2022-11-25T23:22:20.252Z,98641.34
2022-11-25T23:24:49.548Z,98633.47
2022-11-25T23:27:17.698Z,98654.84
2022-11-25T23:29:45.156Z,98654.84
2022-11-25T23:32:18.628Z,98655.03
2022-11-25T23:34:46.382Z,98653.25
2022-11-25T23:37:14.691Z,98660.09
2022-11-25T23:39:48.696Z,98653.78
2022-11-25T23:42:17.900Z,98659.66
2022-11-25T23:44:45.483Z,98662.84
2022-11-25T23:47:20.252Z,98659.91
2022-11-25T23:49:50.853Z,98673.94
2022-11-25T23:52:24.997Z,98664.88
2022-11-25T23:54:54.124Z,98675.47
2022-11-25T23:57:27.918Z,98661.59
2022-11-25T23:59:57.825Z,98663.44
